Southend, Canada
Current Conditions -  °F | °C
As of 2:27 PM on Friday 24 Oct 2014 (Local Time) from CYYL Reporting Station
Overcast Overcast  
Wind Chill: 37°   Ceiling: 2000
Heat Index: 43°   Visibility: 9mi
Dew Point: 41°   Wind: 10mph
Humidity: 93%   Direction: 240°WSW
Pressure: 29.34"   Gusts: NA
Location:  56.33°N, 103.24°W
Report Text: CYYL 242027Z AUTO 24009KT 9SM FEW012 BKN020 BKN027 OVC032 06/05 A2934 RMK SLP953
Loading
Personal Weather Stations






























Interactive Weather Map
Tropical Storm Tracking
New forecast layout! Learn more

10-Day Weather Forecast

Advertisements
Track Severe Weather on mobile